createdAt,value
2019-03-04T00:00:53.335Z,2.97
2019-03-04T00:03:22.803Z,3.00
2019-03-04T00:05:52.294Z,3.13
2019-03-04T00:08:21.959Z,3.00
2019-03-04T00:10:51.547Z,2.77
2019-03-04T00:13:21.118Z,2.57
2019-03-04T00:15:50.683Z,2.90
2019-03-04T00:18:20.354Z,3.03
2019-03-04T00:20:49.951Z,3.20
2019-03-04T00:23:19.415Z,2.90
2019-03-04T00:25:48.865Z,3.10
2019-03-04T00:28:18.447Z,2.80
2019-03-04T00:30:47.915Z,2.87
2019-03-04T00:33:17.531Z,2.67
2019-03-04T00:35:47.013Z,2.97
2019-03-04T00:38:16.650Z,3.03
2019-03-04T00:40:46.101Z,2.77
2019-03-04T00:43:15.730Z,3.13
2019-03-04T00:45:45.215Z,2.80
2019-03-04T00:48:14.784Z,2.97
2019-03-04T00:50:44.306Z,2.50
2019-03-04T00:53:14.212Z,3.00
2019-03-04T00:55:43.752Z,2.90
2019-03-04T00:58:13.297Z,2.83
2019-03-04T01:00:42.848Z,2.77
2019-03-04T01:03:12.803Z,2.40
2019-03-04T01:05:42.371Z,2.63
2019-03-04T01:08:12.044Z,2.57
2019-03-04T01:10:41.582Z,2.90
2019-03-04T01:13:11.261Z,3.10
2019-03-04T01:15:40.946Z,2.63
2019-03-04T01:18:10.436Z,2.67
2019-03-04T01:20:40.013Z,2.80
2019-03-04T01:23:09.558Z,2.67
2019-03-04T01:25:39.089Z,3.07
2019-03-04T01:28:08.680Z,2.60
2019-03-04T01:30:38.202Z,2.63
2019-03-04T01:33:07.832Z,2.80
2019-03-04T01:35:37.582Z,2.50
2019-03-04T01:38:07.122Z,2.63
2019-03-04T01:40:48.607Z,3.53
2019-03-04T01:43:18.027Z,2.47
2019-03-04T01:45:47.475Z,2.40
2019-03-04T01:48:17.256Z,3.03
2019-03-04T01:50:46.847Z,2.60
2019-03-04T01:53:16.501Z,2.60
2019-03-04T01:55:45.953Z,2.93
2019-03-04T01:58:15.514Z,2.60
2019-03-04T02:00:45.303Z,2.90
2019-03-04T02:03:14.835Z,2.70
2019-03-04T02:05:44.673Z,3.20
2019-03-04T02:08:14.371Z,2.37
2019-03-04T02:10:43.779Z,2.40
2019-03-04T02:13:13.206Z,2.47
2019-03-04T02:15:42.631Z,3.13
2019-03-04T02:18:12.201Z,2.90
2019-03-04T02:20:41.657Z,3.30
2019-03-04T02:23:11.367Z,2.70
2019-03-04T02:26:24.029Z,2.60
2019-03-04T02:28:53.589Z,2.80
2019-03-04T02:31:23.082Z,2.90
2019-03-04T02:33:52.570Z,2.67
2019-03-04T02:36:22.031Z,2.90
2019-03-04T02:38:51.474Z,2.57
2019-03-04T02:41:20.952Z,2.87
2019-03-04T02:43:50.447Z,2.67
2019-03-04T02:46:19.874Z,2.80
2019-03-04T02:48:49.373Z,2.87
2019-03-04T02:51:18.906Z,2.70
2019-03-04T02:53:48.385Z,2.97
2019-03-04T02:56:17.805Z,2.47
2019-03-04T02:58:47.270Z,3.10
2019-03-04T03:01:16.879Z,2.97
2019-03-04T03:03:46.385Z,2.60
2019-03-04T03:06:15.896Z,3.00
2019-03-04T03:08:45.303Z,2.77
2019-03-04T03:11:14.852Z,3.00
2019-03-04T03:13:44.266Z,2.83
2019-03-04T03:16:13.710Z,2.60
2019-03-04T03:18:43.147Z,2.77
2019-03-04T03:21:12.804Z,2.90
2019-03-04T03:23:42.241Z,3.07
2019-03-04T03:26:11.979Z,2.63
2019-03-04T03:28:41.477Z,2.53
2019-03-04T03:31:10.903Z,3.03
2019-03-04T03:33:40.440Z,2.77
2019-03-04T03:36:10.020Z,2.90
2019-03-04T03:38:39.430Z,3.10
2019-03-04T03:41:09.221Z,2.90
2019-03-04T03:43:38.820Z,2.87
2019-03-04T03:46:08.252Z,2.90
2019-03-04T03:48:37.688Z,2.70
2019-03-04T03:51:07.281Z,2.97
2019-03-04T03:53:36.852Z,2.57
2019-03-04T03:56:06.529Z,2.60
2019-03-04T03:58:36.087Z,2.70
2019-03-04T04:01:05.510Z,3.03
2019-03-04T04:03:35.183Z,2.40
2019-03-04T04:06:04.695Z,3.03
2019-03-04T04:08:34.189Z,3.23
2019-03-04T04:11:03.622Z,3.00
2019-03-04T04:13:33.127Z,3.10
2019-03-04T04:16:02.523Z,2.80
2019-03-04T04:18:31.974Z,2.50
2019-03-04T04:21:01.413Z,2.93
2019-03-04T04:23:30.879Z,2.70
2019-03-04T04:26:00.318Z,2.77
2019-03-04T04:28:31.149Z,3.00
2019-03-04T04:31:00.575Z,2.40
2019-03-04T04:33:30.003Z,2.60
2019-03-04T04:35:59.496Z,2.47
2019-03-04T04:38:28.994Z,3.00
2019-03-04T04:40:58.450Z,2.57
2019-03-04T04:43:27.857Z,2.70
2019-03-04T04:45:57.294Z,2.93
2019-03-04T04:48:26.730Z,2.50
2019-03-04T04:50:56.156Z,2.63
2019-03-04T04:53:25.586Z,2.40
2019-03-04T04:55:55.036Z,2.73
2019-03-04T04:58:24.502Z,2.60
2019-03-04T05:00:53.936Z,3.00
2019-03-04T05:03:23.349Z,2.43
2019-03-04T05:05:53.364Z,2.77
2019-03-04T05:08:22.787Z,2.50
2019-03-04T05:10:52.283Z,2.67
2019-03-04T05:13:21.790Z,2.60
2019-03-04T05:15:51.199Z,2.70
2019-03-04T05:18:20.629Z,2.70
2019-03-04T05:20:50.168Z,2.47
2019-03-04T05:23:19.569Z,2.60
2019-03-04T05:25:49.057Z,2.27
2019-03-04T05:28:18.459Z,2.50
2019-03-04T05:30:47.849Z,2.27
2019-03-04T05:33:17.369Z,2.70
2019-03-04T05:35:46.841Z,2.77
2019-03-04T05:38:16.361Z,2.67
2019-03-04T05:40:45.792Z,2.43
2019-03-04T05:43:15.297Z,2.47
2019-03-04T05:45:44.756Z,2.50
2019-03-04T05:48:14.342Z,2.50
2019-03-04T05:50:44.076Z,2.30
2019-03-04T05:53:13.635Z,2.93
2019-03-04T05:55:43.170Z,2.57
2019-03-04T05:58:12.793Z,2.90
2019-03-04T06:00:43.068Z,3.73
2019-03-04T06:03:13.293Z,3.13
2019-03-04T06:05:42.710Z,2.97
2019-03-04T06:08:12.254Z,3.03
2019-03-04T06:10:41.745Z,2.80
2019-03-04T06:13:11.468Z,3.30
2019-03-04T06:15:40.871Z,3.23
2019-03-04T06:18:10.412Z,3.10
2019-03-04T06:20:39.932Z,2.57
2019-03-04T06:23:09.384Z,3.40
2019-03-04T06:25:38.915Z,2.67
2019-03-04T06:28:08.410Z,3.13
2019-03-04T06:30:37.901Z,3.00
2019-03-04T06:33:07.412Z,2.60
2019-03-04T06:35:36.910Z,2.80
2019-03-04T06:38:06.371Z,2.80
2019-03-04T06:40:35.805Z,3.00
2019-03-04T06:43:05.525Z,2.80
2019-03-04T06:45:35.003Z,2.90
2019-03-04T06:48:04.573Z,2.77
2019-03-04T06:50:51.104Z,2.87
2019-03-04T06:53:27.772Z,2.43
2019-03-04T06:56:21.803Z,3.30
2019-03-04T06:58:54.536Z,3.20
2019-03-04T07:01:29.947Z,2.60
2019-03-04T07:04:14.061Z,2.37
2019-03-04T07:06:43.533Z,2.77
2019-03-04T07:09:16.249Z,2.40
2019-03-04T07:11:47.007Z,2.50
2019-03-04T07:14:16.709Z,2.40
2019-03-04T07:16:47.069Z,2.80
2019-03-04T07:19:20.817Z,2.90
2019-03-04T07:21:51.521Z,2.47
2019-03-04T07:24:20.976Z,2.23
2019-03-04T07:26:50.549Z,2.27
2019-03-04T07:29:20.026Z,2.20
2019-03-04T07:31:49.587Z,2.13
2019-03-04T07:34:19.047Z,2.50
2019-03-04T07:36:48.873Z,3.30
2019-03-04T07:39:19.625Z,2.47
2019-03-04T07:41:56.670Z,2.30
2019-03-04T07:44:26.162Z,2.30
2019-03-04T07:46:55.800Z,2.30
2019-03-04T07:49:25.293Z,2.20
2019-03-04T07:51:54.790Z,2.37
2019-03-04T07:54:24.567Z,2.00
2019-03-04T07:56:54.469Z,2.33
2019-03-04T07:59:23.994Z,2.10
2019-03-04T08:01:53.562Z,2.30
2019-03-04T08:04:23.136Z,2.13
2019-03-04T08:07:22.338Z,2.03
2019-03-04T08:10:42.001Z,1.90
2019-03-04T08:13:22.354Z,2.20
2019-03-04T08:15:54.522Z,2.23
2019-03-04T08:18:24.067Z,2.20
2019-03-04T08:20:53.490Z,2.60
2019-03-04T08:23:23.078Z,2.77
2019-03-04T08:25:52.507Z,3.00
2019-03-04T08:28:22.081Z,2.57
2019-03-04T08:30:51.552Z,2.83
2019-03-04T08:33:21.130Z,2.83
2019-03-04T08:35:51.127Z,3.20
2019-03-04T08:38:20.627Z,2.73
2019-03-04T08:40:50.355Z,2.27
2019-03-04T08:43:19.922Z,2.50
2019-03-04T08:45:49.506Z,2.57
2019-03-04T08:48:18.953Z,2.43
2019-03-04T08:50:48.384Z,3.20
2019-03-04T08:53:17.987Z,2.10
2019-03-04T08:55:47.411Z,2.17
2019-03-04T08:58:16.997Z,2.13
2019-03-04T09:00:46.499Z,2.27
2019-03-04T09:03:16.055Z,2.23
2019-03-04T09:05:45.998Z,2.20
2019-03-04T09:08:15.745Z,2.00
2019-03-04T09:10:45.401Z,2.30
2019-03-04T09:13:15.201Z,2.30
2019-03-04T09:15:44.902Z,2.50
2019-03-04T09:18:16.301Z,2.20
2019-03-04T09:20:45.716Z,2.10
2019-03-04T09:23:15.240Z,2.50
2019-03-04T09:25:48.322Z,2.23
2019-03-04T09:28:17.938Z,2.60
2019-03-04T09:30:47.513Z,2.17
2019-03-04T09:33:16.966Z,2.10
2019-03-04T09:35:46.515Z,2.10
2019-03-04T09:38:16.159Z,2.20
2019-03-04T09:40:45.739Z,2.00
2019-03-04T09:43:15.809Z,2.20
2019-03-04T09:45:45.310Z,2.13
2019-03-04T09:48:14.822Z,1.90
2019-03-04T09:50:49.778Z,2.43
2019-03-04T09:53:19.442Z,1.80
2019-03-04T09:55:48.875Z,2.37
2019-03-04T09:58:18.308Z,1.87
2019-03-04T10:01:01.463Z,2.00
2019-03-04T10:04:26.662Z,2.20
2019-03-04T10:07:37.135Z,1.83
2019-03-04T10:10:28.293Z,1.90
2019-03-04T10:13:35.021Z,2.43
2019-03-04T10:16:28.471Z,1.87
2019-03-04T10:19:48.727Z,1.80
2019-03-04T10:22:30.315Z,1.83
2019-03-04T10:25:29.766Z,1.87
2019-03-04T10:28:21.735Z,2.47
2019-03-04T10:31:22.232Z,2.00
2019-03-04T10:34:17.229Z,1.90
2019-03-04T10:37:12.707Z,1.70
2019-03-04T10:39:59.295Z,1.40
2019-03-04T10:42:44.557Z,1.80
2019-03-04T10:45:46.521Z,1.87
2019-03-04T10:48:16.109Z,1.60
2019-03-04T10:50:45.543Z,1.53
2019-03-04T10:53:15.208Z,2.53
2019-03-04T10:55:44.689Z,1.67
2019-03-04T10:58:14.181Z,1.60
2019-03-04T11:00:43.863Z,1.50
2019-03-04T11:03:13.758Z,1.57
2019-03-04T11:05:44.618Z,1.77
2019-03-04T11:08:14.120Z,1.63
2019-03-04T11:10:43.666Z,1.50
2019-03-04T11:13:13.250Z,1.20
2019-03-04T11:15:42.922Z,1.30
2019-03-04T11:18:12.631Z,1.23
2019-03-04T11:20:42.154Z,1.03
2019-03-04T11:23:11.950Z,1.10
2019-03-04T11:25:41.593Z,1.17
2019-03-04T11:28:11.291Z,1.40
2019-03-04T11:30:40.872Z,3.20
2019-03-04T11:33:10.662Z,1.30
2019-03-04T11:35:40.093Z,1.30
2019-03-04T11:38:33.035Z,1.10
2019-03-04T11:41:02.557Z,1.00
2019-03-04T11:43:32.014Z,1.23
2019-03-04T11:46:01.619Z,1.03
2019-03-04T11:48:31.086Z,1.00
2019-03-04T11:51:00.607Z,0.83
2019-03-04T11:53:30.124Z,1.00
2019-03-04T11:55:59.585Z,1.00
2019-03-04T11:58:29.041Z,1.00
2019-03-04T12:01:09.901Z,0.87
2019-03-04T12:03:39.521Z,0.70
2019-03-04T12:06:09.179Z,0.90
2019-03-04T12:08:38.621Z,1.00
2019-03-04T12:11:08.145Z,0.60
2019-03-04T12:13:37.579Z,0.60
2019-03-04T12:16:07.309Z,0.63
2019-03-04T12:18:36.757Z,0.70
2019-03-04T12:21:06.520Z,0.60
2019-03-04T12:23:35.972Z,0.80
2019-03-04T12:26:05.907Z,0.60
2019-03-04T12:28:35.353Z,0.60
2019-03-04T12:31:05.250Z,1.10
2019-03-04T12:33:34.721Z,0.60
2019-03-04T12:36:04.995Z,0.60
2019-03-04T12:38:34.446Z,0.80
2019-03-04T12:41:04.314Z,0.60
2019-03-04T12:43:33.799Z,0.90
2019-03-04T12:46:03.374Z,0.50
2019-03-04T12:48:32.865Z,0.60
2019-03-04T12:51:02.491Z,0.70
2019-03-04T12:53:37.310Z,0.70
2019-03-04T12:56:03.608Z,0.60
2019-03-04T12:58:33.197Z,0.60
2019-03-04T13:01:02.803Z,0.67
2019-03-04T13:03:32.358Z,0.70
2019-03-04T13:06:02.022Z,0.77
2019-03-04T13:08:31.515Z,0.60
2019-03-04T13:11:00.984Z,0.60
2019-03-04T13:13:30.600Z,0.70
2019-03-04T13:16:02.176Z,1.33
2019-03-04T13:18:31.652Z,0.70
2019-03-04T13:21:01.121Z,0.67
2019-03-04T13:23:30.699Z,0.60
2019-03-04T13:26:00.146Z,0.80
2019-03-04T13:28:29.616Z,0.70
2019-03-04T13:30:59.236Z,0.80
2019-03-04T13:33:28.924Z,0.80
2019-03-04T13:35:58.403Z,0.60
2019-03-04T13:38:28.065Z,0.90
2019-03-04T13:40:57.746Z,0.80
2019-03-04T13:43:27.295Z,0.80
2019-03-04T13:45:56.727Z,0.70
2019-03-04T13:48:26.283Z,0.67
2019-03-04T13:50:55.851Z,0.70
2019-03-04T13:53:25.341Z,0.70
2019-03-04T13:55:54.921Z,0.80
2019-03-04T13:58:24.427Z,0.73
2019-03-04T14:00:53.945Z,1.10
2019-03-04T14:03:23.673Z,0.63
2019-03-04T14:05:53.275Z,0.90
2019-03-04T14:08:22.958Z,0.77
2019-03-04T14:10:52.595Z,0.60
2019-03-04T14:13:22.330Z,0.80
2019-03-04T14:15:51.992Z,0.80
2019-03-04T14:18:21.583Z,1.63
2019-03-04T14:20:51.294Z,0.70
2019-03-04T14:23:20.910Z,0.60
2019-03-04T14:25:50.520Z,0.97
2019-03-04T14:28:20.209Z,0.70
2019-03-04T14:30:49.774Z,0.90
2019-03-04T14:33:19.513Z,0.80
2019-03-04T14:35:49.088Z,0.83
2019-03-04T14:38:18.738Z,1.00
2019-03-04T14:40:48.456Z,0.77
2019-03-04T14:43:18.298Z,0.90
2019-03-04T14:45:47.998Z,0.90
2019-03-04T14:48:18.136Z,0.77
2019-03-04T14:50:47.834Z,1.30
2019-03-04T14:53:17.400Z,0.70
2019-03-04T14:55:46.834Z,1.10
2019-03-04T14:58:16.412Z,1.00
2019-03-04T15:00:48.818Z,0.80
2019-03-04T15:03:23.083Z,1.07
2019-03-04T15:05:49.540Z,0.70
2019-03-04T15:08:19.209Z,0.97
2019-03-04T15:10:48.691Z,1.43
2019-03-04T15:13:18.148Z,0.67
2019-03-04T15:15:47.561Z,0.77
2019-03-04T15:18:17.268Z,0.90
2019-03-04T15:20:46.879Z,1.00
2019-03-04T15:23:16.622Z,1.00
2019-03-04T15:25:46.356Z,0.80
2019-03-04T15:28:17.980Z,1.13
2019-03-04T15:30:49.337Z,1.47
2019-03-04T15:33:19.144Z,1.53
2019-03-04T15:35:48.737Z,0.70
2019-03-04T15:38:18.235Z,1.00
2019-03-04T15:40:47.747Z,0.93
2019-03-04T15:43:17.310Z,0.93
2019-03-04T15:45:48.879Z,0.90
2019-03-04T15:48:19.604Z,1.00
2019-03-04T15:50:49.105Z,1.30
2019-03-04T15:53:18.823Z,1.80
2019-03-04T15:55:48.349Z,0.73
2019-03-04T15:58:17.976Z,1.00
2019-03-04T16:00:47.541Z,2.03
2019-03-04T16:03:17.051Z,0.83
2019-03-04T16:05:46.690Z,0.70
2019-03-04T16:08:16.260Z,0.70
2019-03-04T16:10:45.958Z,0.90
2019-03-04T16:13:15.504Z,0.80
2019-03-04T16:15:45.769Z,0.87
2019-03-04T16:18:15.872Z,0.80
2019-03-04T16:20:45.770Z,0.53
2019-03-04T16:23:15.486Z,0.80
2019-03-04T16:25:45.078Z,0.77
2019-03-04T16:28:19.856Z,0.80
2019-03-04T16:30:50.473Z,0.77
2019-03-04T16:33:20.137Z,0.50
2019-03-04T16:35:49.624Z,0.90
2019-03-04T16:38:19.192Z,1.20
2019-03-04T16:40:48.693Z,0.70
2019-03-04T16:43:18.394Z,0.80
2019-03-04T16:45:47.891Z,0.80
2019-03-04T16:48:17.507Z,0.70
2019-03-04T16:50:47.128Z,0.90
2019-03-04T16:53:17.180Z,0.90
2019-03-04T16:55:46.643Z,2.30
2019-03-04T16:58:16.071Z,0.87
2019-03-04T17:00:47.127Z,0.80
2019-03-04T17:03:22.280Z,0.60
2019-03-04T17:05:51.797Z,0.90
2019-03-04T17:08:21.268Z,0.80
2019-03-04T17:10:50.824Z,1.60
2019-03-04T17:13:20.420Z,0.90
2019-03-04T17:15:50.078Z,0.80
2019-03-04T17:18:19.543Z,0.70
2019-03-04T17:20:49.058Z,0.70
2019-03-04T17:23:18.611Z,0.90
2019-03-04T17:25:48.389Z,0.87
2019-03-04T17:28:19.346Z,0.90
2019-03-04T17:30:48.774Z,1.10
2019-03-04T17:33:18.281Z,0.83
2019-03-04T17:35:47.810Z,1.03
2019-03-04T17:38:17.534Z,1.00
2019-03-04T17:40:47.026Z,1.00
2019-03-04T17:43:16.530Z,0.90
2019-03-04T17:45:46.036Z,1.00
2019-03-04T17:48:15.818Z,1.10
2019-03-04T17:50:45.416Z,1.10
2019-03-04T17:53:14.989Z,1.30
2019-03-04T17:55:44.799Z,1.23
2019-03-04T17:58:14.704Z,1.20
2019-03-04T18:00:46.832Z,1.20
2019-03-04T18:03:16.376Z,1.20
2019-03-04T18:05:46.338Z,1.30
2019-03-04T18:08:15.798Z,1.20
2019-03-04T18:10:45.290Z,1.27
2019-03-04T18:13:15.074Z,1.50
2019-03-04T18:15:44.652Z,1.43
2019-03-04T18:18:14.157Z,1.50
2019-03-04T18:20:43.581Z,1.47
2019-03-04T18:23:13.203Z,1.40
2019-03-04T18:25:45.291Z,1.20
2019-03-04T18:28:22.798Z,1.40
2019-03-04T18:31:10.019Z,1.50
2019-03-04T18:34:32.804Z,1.60
2019-03-04T18:37:47.667Z,1.30
2019-03-04T18:40:37.804Z,1.43
2019-03-04T18:43:44.407Z,1.60
2019-03-04T18:46:48.867Z,1.80
2019-03-04T18:49:18.571Z,1.30
2019-03-04T18:51:47.996Z,1.70
2019-03-04T18:54:19.294Z,1.60
2019-03-04T18:56:48.801Z,1.87
2019-03-04T18:59:20.072Z,1.60
2019-03-04T19:01:49.651Z,1.60
2019-03-04T19:04:19.437Z,1.97
2019-03-04T19:06:49.139Z,1.70
2019-03-04T19:09:18.683Z,1.70
2019-03-04T19:11:48.277Z,1.80
2019-03-04T19:14:17.828Z,1.80
2019-03-04T19:16:47.303Z,1.70
2019-03-04T19:19:16.718Z,2.00
2019-03-04T19:21:46.155Z,1.57
2019-03-04T19:24:15.775Z,1.70
2019-03-04T19:26:45.279Z,1.60
2019-03-04T19:29:14.843Z,1.57
2019-03-04T19:31:44.355Z,1.60
2019-03-04T19:34:13.850Z,1.60
2019-03-04T19:36:43.518Z,1.67
2019-03-04T19:39:13.118Z,1.50
2019-03-04T19:41:42.666Z,1.57
2019-03-04T19:44:12.128Z,1.80
2019-03-04T19:46:41.680Z,1.67
2019-03-04T19:49:11.144Z,1.80
2019-03-04T19:51:40.712Z,1.60
2019-03-04T19:54:10.340Z,1.67
2019-03-04T19:56:39.847Z,1.93
2019-03-04T19:59:09.320Z,1.70
2019-03-04T20:01:38.914Z,1.97
2019-03-04T20:04:08.521Z,1.93
2019-03-04T20:06:38.012Z,1.93
2019-03-04T20:09:07.881Z,1.80
2019-03-04T20:11:37.291Z,1.70
2019-03-04T20:14:06.812Z,1.60
2019-03-04T20:16:36.233Z,1.60
2019-03-04T20:19:05.759Z,1.80
2019-03-04T20:21:35.264Z,1.73
2019-03-04T20:24:04.866Z,1.70
2019-03-04T20:26:34.373Z,1.60
2019-03-04T20:29:03.821Z,1.70
2019-03-04T20:31:33.254Z,1.43
2019-03-04T20:34:02.758Z,1.77
2019-03-04T20:36:32.269Z,1.70
2019-03-04T20:39:01.770Z,1.43
2019-03-04T20:41:31.555Z,1.70
2019-03-04T20:44:01.067Z,1.73
2019-03-04T20:46:30.857Z,1.80
2019-03-04T20:49:00.299Z,1.80
2019-03-04T20:51:29.747Z,2.03
2019-03-04T20:53:59.362Z,2.07
2019-03-04T20:56:28.810Z,3.30
2019-03-04T20:58:58.264Z,1.70
2019-03-04T21:01:28.075Z,1.80
2019-03-04T21:03:57.484Z,1.60
2019-03-04T21:06:27.259Z,1.73
2019-03-04T21:08:56.784Z,1.60
2019-03-04T21:11:26.242Z,1.40
2019-03-04T21:13:55.809Z,1.50
2019-03-04T21:16:25.253Z,1.60
2019-03-04T21:18:54.848Z,1.70
2019-03-04T21:21:24.609Z,1.43
2019-03-04T21:23:54.097Z,1.57
2019-03-04T21:26:26.631Z,2.17
2019-03-04T21:29:00.492Z,1.93
2019-03-04T21:31:46.314Z,1.83
2019-03-04T21:34:47.667Z,1.70
2019-03-04T21:37:33.290Z,1.90
2019-03-04T21:40:26.727Z,2.00
2019-03-04T21:43:03.640Z,1.60
2019-03-04T21:46:20.904Z,1.97
2019-03-04T21:48:54.350Z,1.77
2019-03-04T21:51:56.811Z,1.70
2019-03-04T21:54:26.642Z,1.70
2019-03-04T21:57:17.499Z,1.90
2019-03-04T21:59:47.106Z,1.50
2019-03-04T22:02:32.750Z,2.60
2019-03-04T22:05:05.840Z,1.70
2019-03-04T22:07:37.278Z,1.90
2019-03-04T22:10:07.978Z,1.83
2019-03-04T22:12:37.409Z,1.80
2019-03-04T22:15:07.088Z,1.73
2019-03-04T22:17:36.615Z,2.30
2019-03-04T22:20:07.169Z,2.10
2019-03-04T22:22:36.682Z,2.10
2019-03-04T22:25:07.352Z,2.30
2019-03-04T22:27:36.855Z,2.80
2019-03-04T22:30:08.694Z,2.23
2019-03-04T22:32:38.222Z,2.20
2019-03-04T22:35:11.839Z,2.07
2019-03-04T22:37:41.525Z,2.30
2019-03-04T22:40:13.546Z,2.13
2019-03-04T22:42:43.096Z,2.50
2019-03-04T22:45:15.207Z,2.30
2019-03-04T22:47:45.043Z,1.80
2019-03-04T22:50:15.568Z,2.10
2019-03-04T22:52:45.098Z,1.80
2019-03-04T22:55:17.804Z,2.37
2019-03-04T22:57:47.414Z,3.00
2019-03-04T23:01:16.074Z,1.87
2019-03-04T23:03:45.978Z,2.00
2019-03-04T23:06:19.039Z,1.93
2019-03-04T23:08:48.569Z,2.23
2019-03-04T23:11:18.985Z,1.87
2019-03-04T23:14:15.324Z,2.07
2019-03-04T23:16:44.894Z,2.00
2019-03-04T23:19:17.423Z,1.90
2019-03-04T23:21:46.918Z,2.73
2019-03-04T23:24:18.394Z,2.00
2019-03-04T23:26:47.820Z,2.13
2019-03-04T23:29:17.378Z,2.20
2019-03-04T23:31:46.808Z,2.10
2019-03-04T23:34:16.221Z,2.23
2019-03-04T23:36:45.707Z,2.23
2019-03-04T23:39:15.206Z,1.90
2019-03-04T23:41:44.654Z,1.97
2019-03-04T23:44:14.339Z,2.00
2019-03-04T23:46:43.872Z,2.43
2019-03-04T23:49:15.075Z,2.37
2019-03-04T23:51:44.521Z,3.17
2019-03-04T23:54:14.253Z,2.50
2019-03-04T23:56:43.710Z,2.23
2019-03-04T23:59:13.335Z,2.27
